sensor_id;sensor_type;location;lat;lon;timestamp;temperature;humidity
49679;DHT22;35570;48.218;16.326;2023-05-07T00:03:10;16.70;99.80
49679;DHT22;35570;48.218;16.326;2023-05-07T00:15:52;16.70;99.90
49679;DHT22;35570;48.218;16.326;2023-05-07T00:18:17;16.70;99.80
49679;DHT22;35570;48.218;16.326;2023-05-07T00:20:46;16.70;99.60
49679;DHT22;35570;48.218;16.326;2023-05-07T00:23:12;16.60;99.90
49679;DHT22;35570;48.218;16.326;2023-05-07T00:29:12;16.60;99.70
49679;DHT22;35570;48.218;16.326;2023-05-07T00:31:57;16.50;99.90
49679;DHT22;35570;48.218;16.326;2023-05-07T00:34:22;16.50;99.90
49679;DHT22;35570;48.218;16.326;2023-05-07T00:36:48;16.40;99.50
49679;DHT22;35570;48.218;16.326;2023-05-07T00:39:14;16.40;99.90
49679;DHT22;35570;48.218;16.326;2023-05-07T00:41:39;16.30;99.50
49679;DHT22;35570;48.218;16.326;2023-05-07T00:44:05;16.30;99.60
49679;DHT22;35570;48.218;16.326;2023-05-07T00:46:31;16.30;99.70
49679;DHT22;35570;48.218;16.326;2023-05-07T00:48:58;16.30;99.70
49679;DHT22;35570;48.218;16.326;2023-05-07T00:51:25;16.30;99.40
49679;DHT22;35570;48.218;16.326;2023-05-07T00:53:53;16.30;99.30
49679;DHT22;35570;48.218;16.326;2023-05-07T00:56:36;16.30;99.10
49679;DHT22;35570;48.218;16.326;2023-05-07T00:59:02;16.30;99.20
49679;DHT22;35570;48.218;16.326;2023-05-07T01:01:28;16.30;99.10
49679;DHT22;35570;48.218;16.326;2023-05-07T01:03:54;16.30;98.90
49679;DHT22;35570;48.218;16.326;2023-05-07T01:06:29;16.20;98.40
49679;DHT22;35570;48.218;16.326;2023-05-07T01:08:58;16.20;98.70
49679;DHT22;35570;48.218;16.326;2023-05-07T01:11:24;16.10;98.60
49679;DHT22;35570;48.218;16.326;2023-05-07T01:13:50;16.10;98.90
49679;DHT22;35570;48.218;16.326;2023-05-07T01:16:16;16.10;98.90
49679;DHT22;35570;48.218;16.326;2023-05-07T01:18:42;16.10;99.10
49679;DHT22;35570;48.218;16.326;2023-05-07T01:24:32;16.10;98.40
49679;DHT22;35570;48.218;16.326;2023-05-07T01:27:05;16.20;98.30
49679;DHT22;35570;48.218;16.326;2023-05-07T01:29:31;16.20;98.50
49679;DHT22;35570;48.218;16.326;2023-05-07T01:31:59;16.10;99.00
49679;DHT22;35570;48.218;16.326;2023-05-07T01:34:45;16.20;98.80
49679;DHT22;35570;48.218;16.326;2023-05-07T01:37:12;16.20;98.50
49679;DHT22;35570;48.218;16.326;2023-05-07T01:39:39;16.30;97.80
49679;DHT22;35570;48.218;16.326;2023-05-07T01:42:05;16.30;98.20
49679;DHT22;35570;48.218;16.326;2023-05-07T01:44:31;16.30;97.90
49679;DHT22;35570;48.218;16.326;2023-05-07T01:46:57;16.20;97.90
49679;DHT22;35570;48.218;16.326;2023-05-07T01:49:22;16.20;98.10
49679;DHT22;35570;48.218;16.326;2023-05-07T01:51:49;16.20;97.60
49679;DHT22;35570;48.218;16.326;2023-05-07T01:54:42;16.20;97.80
49679;DHT22;35570;48.218;16.326;2023-05-07T01:57:08;16.20;97.90
49679;DHT22;35570;48.218;16.326;2023-05-07T01:59:35;16.20;98.00
49679;DHT22;35570;48.218;16.326;2023-05-07T02:02:01;16.10;98.50
49679;DHT22;35570;48.218;16.326;2023-05-07T02:04:26;16.10;98.60
49679;DHT22;35570;48.218;16.326;2023-05-07T02:06:52;16.20;98.60
49679;DHT22;35570;48.218;16.326;2023-05-07T02:09:18;16.30;98.60
49679;DHT22;35570;48.218;16.326;2023-05-07T02:15:06;16.20;98.70
49679;DHT22;35570;48.218;16.326;2023-05-07T02:20:54;16.20;98.50
49679;DHT22;35570;48.218;16.326;2023-05-07T02:23:20;16.20;98.60
49679;DHT22;35570;48.218;16.326;2023-05-07T02:25:45;16.10;98.30
49679;DHT22;35570;48.218;16.326;2023-05-07T02:28:11;16.10;98.50
49679;DHT22;35570;48.218;16.326;2023-05-07T02:30:38;16.10;98.90
49679;DHT22;35570;48.218;16.326;2023-05-07T02:33:03;16.10;98.80
49679;DHT22;35570;48.218;16.326;2023-05-07T02:35:29;16.10;99.00
49679;DHT22;35570;48.218;16.326;2023-05-07T02:37:55;16.10;99.40
49679;DHT22;35570;48.218;16.326;2023-05-07T02:40:23;16.10;98.80
49679;DHT22;35570;48.218;16.326;2023-05-07T02:42:48;16.10;99.00
49679;DHT22;35570;48.218;16.326;2023-05-07T02:45:14;16.10;99.00
49679;DHT22;35570;48.218;16.326;2023-05-07T02:47:40;16.00;99.00
49679;DHT22;35570;48.218;16.326;2023-05-07T02:50:08;16.00;98.90
49679;DHT22;35570;48.218;16.326;2023-05-07T02:52:42;15.90;99.10
49679;DHT22;35570;48.218;16.326;2023-05-07T02:55:13;15.90;99.30
49679;DHT22;35570;48.218;16.326;2023-05-07T02:57:39;15.90;99.20
49679;DHT22;35570;48.218;16.326;2023-05-07T03:00:11;15.90;99.70
49679;DHT22;35570;48.218;16.326;2023-05-07T03:02:37;15.90;99.50
49679;DHT22;35570;48.218;16.326;2023-05-07T03:05:02;15.90;99.30
49679;DHT22;35570;48.218;16.326;2023-05-07T03:07:30;15.90;99.40
49679;DHT22;35570;48.218;16.326;2023-05-07T03:09:56;15.90;99.70
49679;DHT22;35570;48.218;16.326;2023-05-07T03:12:22;15.80;99.60
49679;DHT22;35570;48.218;16.326;2023-05-07T03:15:06;15.80;99.50
49679;DHT22;35570;48.218;16.326;2023-05-07T03:17:32;15.90;99.70
49679;DHT22;35570;48.218;16.326;2023-05-07T03:19:57;15.80;99.60
49679;DHT22;35570;48.218;16.326;2023-05-07T03:22:23;15.80;99.60
49679;DHT22;35570;48.218;16.326;2023-05-07T03:24:49;15.80;99.60
49679;DHT22;35570;48.218;16.326;2023-05-07T03:27:14;15.80;99.80
49679;DHT22;35570;48.218;16.326;2023-05-07T03:29:40;15.80;99.60
49679;DHT22;35570;48.218;16.326;2023-05-07T03:32:05;15.90;99.70
49679;DHT22;35570;48.218;16.326;2023-05-07T03:34:31;15.80;99.30
49679;DHT22;35570;48.218;16.326;2023-05-07T03:36:57;15.80;99.50
49679;DHT22;35570;48.218;16.326;2023-05-07T03:39:22;15.80;99.50
49679;DHT22;35570;48.218;16.326;2023-05-07T03:41:48;15.80;99.50
49679;DHT22;35570;48.218;16.326;2023-05-07T03:44:14;15.70;99.70
49679;DHT22;35570;48.218;16.326;2023-05-07T03:46:39;15.80;99.50
49679;DHT22;35570;48.218;16.326;2023-05-07T03:49:05;15.70;99.70
49679;DHT22;35570;48.218;16.326;2023-05-07T03:51:31;15.80;99.70
49679;DHT22;35570;48.218;16.326;2023-05-07T03:53:56;15.80;99.80
49679;DHT22;35570;48.218;16.326;2023-05-07T03:56:25;15.70;99.60
49679;DHT22;35570;48.218;16.326;2023-05-07T03:58:52;15.80;99.70
49679;DHT22;35570;48.218;16.326;2023-05-07T04:01:17;15.80;99.70
49679;DHT22;35570;48.218;16.326;2023-05-07T04:03:43;15.80;99.70
49679;DHT22;35570;48.218;16.326;2023-05-07T04:06:09;15.80;99.50
49679;DHT22;35570;48.218;16.326;2023-05-07T04:08:34;15.80;99.50
49679;DHT22;35570;48.218;16.326;2023-05-07T04:11:00;15.80;99.70
49679;DHT22;35570;48.218;16.326;2023-05-07T04:13:28;15.80;99.70
49679;DHT22;35570;48.218;16.326;2023-05-07T04:15:55;15.90;99.60
49679;DHT22;35570;48.218;16.326;2023-05-07T04:18:21;15.80;99.60
49679;DHT22;35570;48.218;16.326;2023-05-07T04:20:47;15.90;99.50
49679;DHT22;35570;48.218;16.326;2023-05-07T04:23:13;15.90;99.90
49679;DHT22;35570;48.218;16.326;2023-05-07T04:25:39;15.90;99.80
49679;DHT22;35570;48.218;16.326;2023-05-07T04:28:04;16.00;99.50
49679;DHT22;35570;48.218;16.326;2023-05-07T04:30:30;16.10;99.10
49679;DHT22;35570;48.218;16.326;2023-05-07T04:32:55;16.00;99.30
49679;DHT22;35570;48.218;16.326;2023-05-07T04:35:22;16.10;99.10
49679;DHT22;35570;48.218;16.326;2023-05-07T04:37:47;16.10;99.10
49679;DHT22;35570;48.218;16.326;2023-05-07T04:40:13;16.10;99.30
49679;DHT22;35570;48.218;16.326;2023-05-07T04:42:39;16.20;99.10
49679;DHT22;35570;48.218;16.326;2023-05-07T04:45:05;16.20;98.80
49679;DHT22;35570;48.218;16.326;2023-05-07T04:47:31;16.30;99.00
49679;DHT22;35570;48.218;16.326;2023-05-07T04:49:58;16.30;98.80
49679;DHT22;35570;48.218;16.326;2023-05-07T04:52:23;16.30;98.40
49679;DHT22;35570;48.218;16.326;2023-05-07T04:54:49;16.40;99.20
49679;DHT22;35570;48.218;16.326;2023-05-07T04:57:14;16.40;98.90
49679;DHT22;35570;48.218;16.326;2023-05-07T04:59:42;16.50;98.40
49679;DHT22;35570;48.218;16.326;2023-05-07T05:02:07;16.50;99.20
49679;DHT22;35570;48.218;16.326;2023-05-07T05:04:33;16.50;98.70
49679;DHT22;35570;48.218;16.326;2023-05-07T05:06:59;16.60;99.10
49679;DHT22;35570;48.218;16.326;2023-05-07T05:09:24;16.70;98.70
49679;DHT22;35570;48.218;16.326;2023-05-07T05:11:50;16.70;98.40
49679;DHT22;35570;48.218;16.326;2023-05-07T05:14:15;16.90;98.40
49679;DHT22;35570;48.218;16.326;2023-05-07T05:16:41;16.90;98.50
49679;DHT22;35570;48.218;16.326;2023-05-07T05:19:07;17.00;97.90
49679;DHT22;35570;48.218;16.326;2023-05-07T05:21:32;17.00;97.80
49679;DHT22;35570;48.218;16.326;2023-05-07T05:23:58;17.10;97.70
49679;DHT22;35570;48.218;16.326;2023-05-07T05:26:24;17.10;97.70
49679;DHT22;35570;48.218;16.326;2023-05-07T05:28:49;17.10;97.60
49679;DHT22;35570;48.218;16.326;2023-05-07T05:31:16;17.20;97.50
49679;DHT22;35570;48.218;16.326;2023-05-07T05:33:42;17.20;97.70
49679;DHT22;35570;48.218;16.326;2023-05-07T05:36:09;17.20;97.80
49679;DHT22;35570;48.218;16.326;2023-05-07T05:38:36;17.30;97.50
49679;DHT22;35570;48.218;16.326;2023-05-07T05:41:01;17.40;97.10
49679;DHT22;35570;48.218;16.326;2023-05-07T05:43:27;17.40;96.80
49679;DHT22;35570;48.218;16.326;2023-05-07T05:45:52;17.50;96.90
49679;DHT22;35570;48.218;16.326;2023-05-07T05:48:18;17.50;96.50
49679;DHT22;35570;48.218;16.326;2023-05-07T05:50:43;17.50;96.50
49679;DHT22;35570;48.218;16.326;2023-05-07T05:53:09;17.70;96.60
49679;DHT22;35570;48.218;16.326;2023-05-07T05:55:35;17.80;96.20
49679;DHT22;35570;48.218;16.326;2023-05-07T05:58:01;17.90;95.40
49679;DHT22;35570;48.218;16.326;2023-05-07T06:00:27;17.90;95.00
49679;DHT22;35570;48.218;16.326;2023-05-07T06:02:52;17.90;95.10
49679;DHT22;35570;48.218;16.326;2023-05-07T06:05:18;18.00;94.80
49679;DHT22;35570;48.218;16.326;2023-05-07T06:07:44;18.10;94.00
49679;DHT22;35570;48.218;16.326;2023-05-07T06:10:09;18.00;92.80
49679;DHT22;35570;48.218;16.326;2023-05-07T06:12:35;18.10;92.80
49679;DHT22;35570;48.218;16.326;2023-05-07T06:15:01;18.20;92.90
49679;DHT22;35570;48.218;16.326;2023-05-07T06:17:27;18.20;91.70
49679;DHT22;35570;48.218;16.326;2023-05-07T06:19:52;18.30;92.70
49679;DHT22;35570;48.218;16.326;2023-05-07T06:22:18;18.30;91.10
49679;DHT22;35570;48.218;16.326;2023-05-07T06:24:44;18.30;91.00
49679;DHT22;35570;48.218;16.326;2023-05-07T06:27:09;18.30;90.90
49679;DHT22;35570;48.218;16.326;2023-05-07T06:29:35;18.30;90.90
49679;DHT22;35570;48.218;16.326;2023-05-07T06:32:11;18.30;91.30
49679;DHT22;35570;48.218;16.326;2023-05-07T06:34:37;18.30;90.70
49679;DHT22;35570;48.218;16.326;2023-05-07T06:37:03;18.40;90.00
49679;DHT22;35570;48.218;16.326;2023-05-07T06:39:28;18.50;89.70
49679;DHT22;35570;48.218;16.326;2023-05-07T06:41:54;18.60;88.30
49679;DHT22;35570;48.218;16.326;2023-05-07T06:44:20;18.60;88.80
49679;DHT22;35570;48.218;16.326;2023-05-07T06:46:45;18.60;88.70
49679;DHT22;35570;48.218;16.326;2023-05-07T06:49:12;18.80;86.20
49679;DHT22;35570;48.218;16.326;2023-05-07T06:51:38;18.90;84.20
49679;DHT22;35570;48.218;16.326;2023-05-07T06:54:04;18.90;84.30
49679;DHT22;35570;48.218;16.326;2023-05-07T06:56:30;19.00;85.90
49679;DHT22;35570;48.218;16.326;2023-05-07T06:58:56;19.10;83.20
49679;DHT22;35570;48.218;16.326;2023-05-07T07:01:21;19.10;82.10
49679;DHT22;35570;48.218;16.326;2023-05-07T07:03:47;19.10;81.50
49679;DHT22;35570;48.218;16.326;2023-05-07T07:06:13;19.10;81.60
49679;DHT22;35570;48.218;16.326;2023-05-07T07:08:38;19.10;80.70
49679;DHT22;35570;48.218;16.326;2023-05-07T07:11:05;19.20;80.30
49679;DHT22;35570;48.218;16.326;2023-05-07T07:13:30;19.20;79.60
49679;DHT22;35570;48.218;16.326;2023-05-07T07:15:56;19.20;79.70
49679;DHT22;35570;48.218;16.326;2023-05-07T07:18:22;19.30;79.70
49679;DHT22;35570;48.218;16.326;2023-05-07T07:20:47;19.20;78.50
49679;DHT22;35570;48.218;16.326;2023-05-07T07:23:13;19.30;79.30
49679;DHT22;35570;48.218;16.326;2023-05-07T07:25:39;19.40;79.30
49679;DHT22;35570;48.218;16.326;2023-05-07T07:28:05;19.50;78.20
49679;DHT22;35570;48.218;16.326;2023-05-07T07:30:31;19.50;76.10
49679;DHT22;35570;48.218;16.326;2023-05-07T07:32:56;19.40;75.70
49679;DHT22;35570;48.218;16.326;2023-05-07T07:35:31;19.30;76.00
49679;DHT22;35570;48.218;16.326;2023-05-07T07:37:57;19.10;75.70
49679;DHT22;35570;48.218;16.326;2023-05-07T07:40:23;19.00;76.80
49679;DHT22;35570;48.218;16.326;2023-05-07T07:42:48;19.00;77.70
49679;DHT22;35570;48.218;16.326;2023-05-07T07:45:14;19.00;77.70
49679;DHT22;35570;48.218;16.326;2023-05-07T07:47:40;18.90;77.30
49679;DHT22;35570;48.218;16.326;2023-05-07T07:50:06;18.90;77.30
49679;DHT22;35570;48.218;16.326;2023-05-07T07:52:33;19.00;77.40
49679;DHT22;35570;48.218;16.326;2023-05-07T07:54:58;19.00;77.70
49679;DHT22;35570;48.218;16.326;2023-05-07T07:57:24;19.20;78.10
49679;DHT22;35570;48.218;16.326;2023-05-07T07:59:50;19.30;76.10
49679;DHT22;35570;48.218;16.326;2023-05-07T08:02:16;19.40;77.30
49679;DHT22;35570;48.218;16.326;2023-05-07T08:04:42;19.60;74.80
49679;DHT22;35570;48.218;16.326;2023-05-07T08:07:12;19.60;75.50
49679;DHT22;35570;48.218;16.326;2023-05-07T08:09:38;19.70;74.60
49679;DHT22;35570;48.218;16.326;2023-05-07T08:12:04;19.90;73.60
49679;DHT22;35570;48.218;16.326;2023-05-07T08:14:30;19.90;72.60
49679;DHT22;35570;48.218;16.326;2023-05-07T08:16:56;19.90;72.30
49679;DHT22;35570;48.218;16.326;2023-05-07T08:19:21;19.90;71.80
49679;DHT22;35570;48.218;16.326;2023-05-07T08:21:48;19.90;71.60
49679;DHT22;35570;48.218;16.326;2023-05-07T08:24:14;19.90;72.10
49679;DHT22;35570;48.218;16.326;2023-05-07T08:26:41;19.90;72.80
49679;DHT22;35570;48.218;16.326;2023-05-07T08:29:07;19.90;72.10
49679;DHT22;35570;48.218;16.326;2023-05-07T08:31:33;19.90;72.30
49679;DHT22;35570;48.218;16.326;2023-05-07T08:33:59;20.00;71.60
49679;DHT22;35570;48.218;16.326;2023-05-07T08:36:25;20.10;71.00
49679;DHT22;35570;48.218;16.326;2023-05-07T08:38:51;20.20;71.50
49679;DHT22;35570;48.218;16.326;2023-05-07T08:41:17;20.50;71.70
49679;DHT22;35570;48.218;16.326;2023-05-07T08:43:47;20.80;69.30
49679;DHT22;35570;48.218;16.326;2023-05-07T08:46:19;21.00;67.80
49679;DHT22;35570;48.218;16.326;2023-05-07T08:48:47;21.10;68.50
49679;DHT22;35570;48.218;16.326;2023-05-07T08:51:14;21.30;67.20
49679;DHT22;35570;48.218;16.326;2023-05-07T08:53:41;21.50;66.10
49679;DHT22;35570;48.218;16.326;2023-05-07T08:56:08;21.60;65.60
49679;DHT22;35570;48.218;16.326;2023-05-07T08:58:34;21.50;65.00
49679;DHT22;35570;48.218;16.326;2023-05-07T09:01:07;21.60;65.40
49679;DHT22;35570;48.218;16.326;2023-05-07T09:03:33;21.60;65.00
49679;DHT22;35570;48.218;16.326;2023-05-07T09:05:59;21.60;65.40
49679;DHT22;35570;48.218;16.326;2023-05-07T09:08:27;21.60;65.20
49679;DHT22;35570;48.218;16.326;2023-05-07T09:10:53;21.50;65.90
49679;DHT22;35570;48.218;16.326;2023-05-07T09:13:19;21.40;67.50
49679;DHT22;35570;48.218;16.326;2023-05-07T09:15:45;21.40;66.40
49679;DHT22;35570;48.218;16.326;2023-05-07T09:18:12;21.40;66.90
49679;DHT22;35570;48.218;16.326;2023-05-07T09:20:38;21.30;66.60
49679;DHT22;35570;48.218;16.326;2023-05-07T09:23:05;21.40;67.60
49679;DHT22;35570;48.218;16.326;2023-05-07T09:25:33;21.70;67.70
49679;DHT22;35570;48.218;16.326;2023-05-07T09:28:00;21.90;64.50
49679;DHT22;35570;48.218;16.326;2023-05-07T09:30:33;22.10;64.60
49679;DHT22;35570;48.218;16.326;2023-05-07T09:33:01;22.20;63.50
49679;DHT22;35570;48.218;16.326;2023-05-07T09:35:27;22.10;62.90
49679;DHT22;35570;48.218;16.326;2023-05-07T09:37:58;22.10;62.50
49679;DHT22;35570;48.218;16.326;2023-05-07T09:40:26;22.20;65.60
49679;DHT22;35570;48.218;16.326;2023-05-07T09:42:53;22.50;65.40
49679;DHT22;35570;48.218;16.326;2023-05-07T09:45:26;22.90;64.10
49679;DHT22;35570;48.218;16.326;2023-05-07T09:47:57;23.20;61.80
49679;DHT22;35570;48.218;16.326;2023-05-07T09:50:28;23.30;60.40
49679;DHT22;35570;48.218;16.326;2023-05-07T09:52:55;23.50;60.20
49679;DHT22;35570;48.218;16.326;2023-05-07T09:55:22;23.90;58.90
49679;DHT22;35570;48.218;16.326;2023-05-07T09:57:52;24.20;59.10
49679;DHT22;35570;48.218;16.326;2023-05-07T10:00:19;24.50;57.80
49679;DHT22;35570;48.218;16.326;2023-05-07T10:02:51;24.70;56.40
49679;DHT22;35570;48.218;16.326;2023-05-07T10:05:21;24.80;57.20
49679;DHT22;35570;48.218;16.326;2023-05-07T10:07:48;25.10;55.20
49679;DHT22;35570;48.218;16.326;2023-05-07T10:10:14;25.30;56.30
49679;DHT22;35570;48.218;16.326;2023-05-07T10:12:41;25.60;54.90
49679;DHT22;35570;48.218;16.326;2023-05-07T10:15:11;25.70;55.60
49679;DHT22;35570;48.218;16.326;2023-05-07T10:17:40;25.90;54.80
49679;DHT22;35570;48.218;16.326;2023-05-07T10:20:07;26.00;53.10
49679;DHT22;35570;48.218;16.326;2023-05-07T10:22:40;26.20;52.80
49679;DHT22;35570;48.218;16.326;2023-05-07T10:25:16;26.50;53.90
49679;DHT22;35570;48.218;16.326;2023-05-07T10:27:43;26.60;51.40
49679;DHT22;35570;48.218;16.326;2023-05-07T10:33:12;26.10;53.00
49679;DHT22;35570;48.218;16.326;2023-05-07T10:35:43;26.10;53.00
49679;DHT22;35570;48.218;16.326;2023-05-07T10:40:35;26.00;51.00
49679;DHT22;35570;48.218;16.326;2023-05-07T10:43:03;25.90;53.10
49679;DHT22;35570;48.218;16.326;2023-05-07T10:45:30;26.20;51.80
49679;DHT22;35570;48.218;16.326;2023-05-07T10:50:34;27.40;52.30
49679;DHT22;35570;48.218;16.326;2023-05-07T10:55:51;28.70;49.20
49679;DHT22;35570;48.218;16.326;2023-05-07T11:00:46;28.40;47.30
49679;DHT22;35570;48.218;16.326;2023-05-07T11:03:12;28.40;48.90
49679;DHT22;35570;48.218;16.326;2023-05-07T11:05:38;28.20;49.30
49679;DHT22;35570;48.218;16.326;2023-05-07T11:08:05;28.00;48.70
49679;DHT22;35570;48.218;16.326;2023-05-07T11:10:52;28.00;49.90
49679;DHT22;35570;48.218;16.326;2023-05-07T11:13:45;28.10;47.90
49679;DHT22;35570;48.218;16.326;2023-05-07T11:16:21;28.30;49.00
49679;DHT22;35570;48.218;16.326;2023-05-07T11:18:49;28.50;47.50
49679;DHT22;35570;48.218;16.326;2023-05-07T11:21:39;28.50;46.70
49679;DHT22;35570;48.218;16.326;2023-05-07T11:24:06;28.60;46.70
49679;DHT22;35570;48.218;16.326;2023-05-07T11:29:19;28.70;47.20
49679;DHT22;35570;48.218;16.326;2023-05-07T11:31:52;28.60;46.80
49679;DHT22;35570;48.218;16.326;2023-05-07T11:34:25;28.70;48.40
49679;DHT22;35570;48.218;16.326;2023-05-07T11:36:51;28.90;47.00
49679;DHT22;35570;48.218;16.326;2023-05-07T11:39:31;29.00;46.40
49679;DHT22;35570;48.218;16.326;2023-05-07T11:42:01;28.60;46.80
49679;DHT22;35570;48.218;16.326;2023-05-07T11:44:45;28.60;46.00
49679;DHT22;35570;48.218;16.326;2023-05-07T11:47:17;28.80;46.00
49679;DHT22;35570;48.218;16.326;2023-05-07T11:49:43;29.20;45.00
49679;DHT22;35570;48.218;16.326;2023-05-07T11:52:09;29.60;45.00
49679;DHT22;35570;48.218;16.326;2023-05-07T11:54:36;29.60;44.40
49679;DHT22;35570;48.218;16.326;2023-05-07T11:57:02;29.30;44.30
49679;DHT22;35570;48.218;16.326;2023-05-07T11:59:28;28.90;44.30
49679;DHT22;35570;48.218;16.326;2023-05-07T12:01:57;28.70;45.30
49679;DHT22;35570;48.218;16.326;2023-05-07T12:04:23;28.70;45.90
49679;DHT22;35570;48.218;16.326;2023-05-07T12:06:48;28.80;45.20
49679;DHT22;35570;48.218;16.326;2023-05-07T12:09:16;28.90;45.40
49679;DHT22;35570;48.218;16.326;2023-05-07T12:11:45;29.30;45.10
49679;DHT22;35570;48.218;16.326;2023-05-07T12:14:11;29.10;44.60
49679;DHT22;35570;48.218;16.326;2023-05-07T12:16:38;29.00;45.20
49679;DHT22;35570;48.218;16.326;2023-05-07T12:19:05;28.60;45.20
49679;DHT22;35570;48.218;16.326;2023-05-07T12:21:31;27.90;45.90
49679;DHT22;35570;48.218;16.326;2023-05-07T12:23:57;27.30;47.10
49679;DHT22;35570;48.218;16.326;2023-05-07T12:26:23;26.70;48.00
49679;DHT22;35570;48.218;16.326;2023-05-07T12:28:50;26.30;48.50
49679;DHT22;35570;48.218;16.326;2023-05-07T12:31:16;26.10;48.80
49679;DHT22;35570;48.218;16.326;2023-05-07T12:33:42;26.30;49.00
49679;DHT22;35570;48.218;16.326;2023-05-07T12:36:08;26.50;48.80
49679;DHT22;35570;48.218;16.326;2023-05-07T12:38:35;26.70;48.00
49679;DHT22;35570;48.218;16.326;2023-05-07T12:41:02;26.80;48.40
49679;DHT22;35570;48.218;16.326;2023-05-07T12:43:28;26.90;48.20
49679;DHT22;35570;48.218;16.326;2023-05-07T12:46:05;26.80;48.20
49679;DHT22;35570;48.218;16.326;2023-05-07T12:48:31;26.60;48.10
49679;DHT22;35570;48.218;16.326;2023-05-07T12:50:58;26.40;48.70
49679;DHT22;35570;48.218;16.326;2023-05-07T12:53:26;26.20;48.40
49679;DHT22;35570;48.218;16.326;2023-05-07T12:55:54;26.00;48.70
49679;DHT22;35570;48.218;16.326;2023-05-07T12:58:28;26.10;49.70
49679;DHT22;35570;48.218;16.326;2023-05-07T13:00:55;26.50;48.70
49679;DHT22;35570;48.218;16.326;2023-05-07T13:03:25;27.00;48.30
49679;DHT22;35570;48.218;16.326;2023-05-07T13:05:52;27.40;47.40
49679;DHT22;35570;48.218;16.326;2023-05-07T13:08:26;27.80;47.30
49679;DHT22;35570;48.218;16.326;2023-05-07T13:10:52;28.00;45.90
49679;DHT22;35570;48.218;16.326;2023-05-07T13:13:19;28.00;45.60
49679;DHT22;35570;48.218;16.326;2023-05-07T13:15:47;28.00;46.20
49679;DHT22;35570;48.218;16.326;2023-05-07T13:18:13;28.00;45.20
49679;DHT22;35570;48.218;16.326;2023-05-07T13:20:38;27.90;44.80
49679;DHT22;35570;48.218;16.326;2023-05-07T13:23:04;27.50;45.20
49679;DHT22;35570;48.218;16.326;2023-05-07T13:25:30;27.10;45.80
49679;DHT22;35570;48.218;16.326;2023-05-07T13:27:59;26.80;46.70
49679;DHT22;35570;48.218;16.326;2023-05-07T13:30:25;26.60;46.90
49679;DHT22;35570;48.218;16.326;2023-05-07T13:32:52;26.50;46.80
49679;DHT22;35570;48.218;16.326;2023-05-07T13:35:17;26.60;47.50
49679;DHT22;35570;48.218;16.326;2023-05-07T13:37:43;26.50;46.40
49679;DHT22;35570;48.218;16.326;2023-05-07T13:40:09;26.50;46.40
49679;DHT22;35570;48.218;16.326;2023-05-07T13:42:35;26.70;46.80
49679;DHT22;35570;48.218;16.326;2023-05-07T13:45:00;26.70;46.30
49679;DHT22;35570;48.218;16.326;2023-05-07T13:47:26;26.70;46.90
49679;DHT22;35570;48.218;16.326;2023-05-07T13:49:51;26.60;46.50
49679;DHT22;35570;48.218;16.326;2023-05-07T13:52:17;26.60;46.30
49679;DHT22;35570;48.218;16.326;2023-05-07T13:54:43;26.50;45.90
49679;DHT22;35570;48.218;16.326;2023-05-07T13:57:09;26.50;46.10
49679;DHT22;35570;48.218;16.326;2023-05-07T13:59:34;26.90;46.20
49679;DHT22;35570;48.218;16.326;2023-05-07T14:02:00;27.30;45.30
49679;DHT22;35570;48.218;16.326;2023-05-07T14:04:25;27.80;44.60
49679;DHT22;35570;48.218;16.326;2023-05-07T14:06:51;27.70;44.40
49679;DHT22;35570;48.218;16.326;2023-05-07T14:09:17;27.40;44.40
49679;DHT22;35570;48.218;16.326;2023-05-07T14:11:42;27.00;44.30
49679;DHT22;35570;48.218;16.326;2023-05-07T14:14:08;26.40;45.40
49679;DHT22;35570;48.218;16.326;2023-05-07T14:16:37;26.00;46.20
49679;DHT22;35570;48.218;16.326;2023-05-07T14:19:03;25.70;46.70
49679;DHT22;35570;48.218;16.326;2023-05-07T14:21:28;25.30;47.60
49679;DHT22;35570;48.218;16.326;2023-05-07T14:23:54;24.90;48.40
49679;DHT22;35570;48.218;16.326;2023-05-07T14:26:21;24.60;49.50
49679;DHT22;35570;48.218;16.326;2023-05-07T14:28:48;24.30;48.90
49679;DHT22;35570;48.218;16.326;2023-05-07T14:31:14;24.20;48.90
49679;DHT22;35570;48.218;16.326;2023-05-07T14:33:40;24.00;49.70
49679;DHT22;35570;48.218;16.326;2023-05-07T14:36:05;23.80;50.00
49679;DHT22;35570;48.218;16.326;2023-05-07T14:38:31;23.70;50.20
49679;DHT22;35570;48.218;16.326;2023-05-07T14:40:58;23.60;50.20
49679;DHT22;35570;48.218;16.326;2023-05-07T14:43:24;23.70;50.90
49679;DHT22;35570;48.218;16.326;2023-05-07T14:45:49;23.60;51.00
49679;DHT22;35570;48.218;16.326;2023-05-07T14:48:15;23.50;51.70
49679;DHT22;35570;48.218;16.326;2023-05-07T14:50:41;23.40;51.60
49679;DHT22;35570;48.218;16.326;2023-05-07T14:53:07;23.40;52.30
49679;DHT22;35570;48.218;16.326;2023-05-07T14:55:34;23.20;52.40
49679;DHT22;35570;48.218;16.326;2023-05-07T14:58:00;23.10;52.10
49679;DHT22;35570;48.218;16.326;2023-05-07T15:00:26;22.90;52.40
49679;DHT22;35570;48.218;16.326;2023-05-07T15:02:51;22.90;52.30
49679;DHT22;35570;48.218;16.326;2023-05-07T15:05:17;22.90;53.50
49679;DHT22;35570;48.218;16.326;2023-05-07T15:07:44;22.90;53.20
49679;DHT22;35570;48.218;16.326;2023-05-07T15:10:10;23.10;52.50
49679;DHT22;35570;48.218;16.326;2023-05-07T15:12:36;23.30;52.30
49679;DHT22;35570;48.218;16.326;2023-05-07T15:15:01;23.80;51.10
49679;DHT22;35570;48.218;16.326;2023-05-07T15:17:27;24.20;50.40
49679;DHT22;35570;48.218;16.326;2023-05-07T15:19:53;24.50;49.80
49679;DHT22;35570;48.218;16.326;2023-05-07T15:22:19;24.70;49.30
49679;DHT22;35570;48.218;16.326;2023-05-07T15:24:46;25.10;48.30
49679;DHT22;35570;48.218;16.326;2023-05-07T15:27:12;25.00;48.70
49679;DHT22;35570;48.218;16.326;2023-05-07T15:29:38;24.90;48.20
49679;DHT22;35570;48.218;16.326;2023-05-07T15:32:03;24.80;48.00
49679;DHT22;35570;48.218;16.326;2023-05-07T15:34:29;25.40;47.40
49679;DHT22;35570;48.218;16.326;2023-05-07T15:36:56;25.30;47.50
49679;DHT22;35570;48.218;16.326;2023-05-07T15:39:24;24.90;48.20
49679;DHT22;35570;48.218;16.326;2023-05-07T15:41:50;24.40;49.10
49679;DHT22;35570;48.218;16.326;2023-05-07T15:44:15;23.90;49.80
49679;DHT22;35570;48.218;16.326;2023-05-07T15:46:41;23.50;50.30
49679;DHT22;35570;48.218;16.326;2023-05-07T15:49:07;23.20;50.90
49679;DHT22;35570;48.218;16.326;2023-05-07T15:51:34;22.80;51.40
49679;DHT22;35570;48.218;16.326;2023-05-07T15:54:00;22.50;51.80
49679;DHT22;35570;48.218;16.326;2023-05-07T15:56:26;22.20;52.40